createdAt,value
2018-07-13T00:00:11.206Z,0.00
2018-07-13T00:01:11.447Z,0.00
2018-07-13T00:02:11.690Z,0.00
2018-07-13T00:03:11.932Z,0.00
2018-07-13T00:04:12.178Z,0.00
2018-07-13T00:05:12.417Z,0.00
2018-07-13T00:06:12.660Z,0.00
2018-07-13T00:07:12.904Z,0.00
2018-07-13T00:08:13.145Z,0.00
2018-07-13T00:09:13.386Z,0.00
2018-07-13T00:10:13.631Z,0.00
2018-07-13T00:11:13.873Z,0.00
2018-07-13T00:12:14.118Z,0.00
2018-07-13T00:13:14.356Z,0.00
2018-07-13T00:14:14.600Z,0.00
2018-07-13T00:15:14.845Z,0.00
2018-07-13T00:16:15.084Z,0.00
2018-07-13T00:17:15.327Z,0.00
2018-07-13T00:18:15.568Z,0.00
2018-07-13T00:19:15.811Z,0.00
2018-07-13T00:20:16.051Z,0.00
2018-07-13T00:21:16.295Z,0.00
2018-07-13T00:22:16.539Z,0.00
2018-07-13T00:23:16.782Z,0.00
2018-07-13T00:24:17.024Z,0.00
2018-07-13T00:25:17.267Z,0.00
2018-07-13T00:26:17.510Z,0.00
2018-07-13T00:27:17.754Z,0.00
2018-07-13T00:28:17.996Z,0.00
2018-07-13T00:29:18.242Z,0.00
2018-07-13T00:30:18.482Z,0.00
2018-07-13T00:31:18.729Z,0.00
2018-07-13T00:32:18.976Z,0.00
2018-07-13T00:33:19.219Z,0.00
2018-07-13T00:34:19.458Z,0.00
2018-07-13T00:35:19.706Z,0.00
2018-07-13T00:36:19.950Z,0.00
2018-07-13T00:37:20.197Z,0.00
2018-07-13T00:38:20.445Z,0.00
2018-07-13T00:39:20.688Z,0.00
2018-07-13T00:40:20.932Z,0.00
2018-07-13T00:41:21.179Z,0.00
2018-07-13T00:42:21.424Z,0.00
2018-07-13T00:43:21.673Z,0.00
2018-07-13T00:44:21.917Z,0.00
2018-07-13T00:45:22.162Z,0.00
2018-07-13T00:46:22.408Z,0.00
2018-07-13T00:47:22.653Z,0.00
2018-07-13T00:48:22.897Z,0.00
2018-07-13T00:49:23.139Z,0.00
2018-07-13T00:50:23.382Z,0.00
2018-07-13T00:51:23.628Z,0.00
2018-07-13T00:52:23.869Z,0.00
2018-07-13T00:53:24.114Z,0.00
2018-07-13T00:54:24.358Z,0.00
2018-07-13T00:55:24.602Z,0.00
2018-07-13T00:56:24.843Z,0.00
2018-07-13T00:57:25.089Z,0.00
2018-07-13T00:58:25.333Z,0.00
2018-07-13T00:59:25.593Z,0.00
2018-07-13T01:00:25.819Z,0.00
2018-07-13T01:01:26.061Z,0.00
2018-07-13T01:02:26.305Z,0.00
2018-07-13T01:03:26.549Z,0.00
2018-07-13T01:04:26.793Z,0.00
2018-07-13T01:05:27.036Z,0.00
2018-07-13T01:06:27.277Z,0.00
2018-07-13T01:07:27.520Z,0.00
2018-07-13T01:08:27.762Z,0.00
2018-07-13T01:09:28.006Z,0.00
2018-07-13T01:10:28.248Z,0.00
2018-07-13T01:11:28.492Z,0.00
2018-07-13T01:12:28.732Z,0.00
2018-07-13T01:13:28.975Z,0.00
2018-07-13T01:14:29.217Z,0.00
2018-07-13T01:15:29.459Z,0.00
2018-07-13T01:16:29.704Z,0.00
2018-07-13T01:17:29.944Z,0.00
2018-07-13T01:18:30.186Z,0.00
2018-07-13T01:19:30.429Z,0.00
2018-07-13T01:20:30.675Z,0.00
2018-07-13T01:21:30.914Z,0.00
2018-07-13T01:22:31.156Z,0.00
2018-07-13T01:23:31.397Z,0.00
2018-07-13T01:24:31.639Z,0.00
2018-07-13T01:25:31.880Z,0.00
2018-07-13T01:26:32.123Z,0.00
2018-07-13T01:27:32.366Z,0.00
2018-07-13T01:28:32.611Z,0.00
2018-07-13T01:29:32.855Z,0.00
2018-07-13T01:30:33.095Z,0.00
2018-07-13T01:31:33.334Z,0.00
2018-07-13T01:32:33.578Z,0.00
2018-07-13T01:33:33.825Z,0.00
2018-07-13T01:34:34.066Z,0.00
2018-07-13T01:35:58.249Z,0.00
2018-07-13T01:39:38.315Z,0.00
2018-07-13T01:40:38.556Z,0.00
2018-07-13T01:41:38.797Z,0.00
2018-07-13T01:42:39.038Z,0.00
2018-07-13T01:43:39.280Z,0.00
2018-07-13T01:44:39.525Z,0.00
2018-07-13T01:45:39.763Z,0.00
2018-07-13T01:46:40.004Z,0.00
2018-07-13T01:47:40.244Z,0.00
2018-07-13T01:48:40.486Z,0.00
2018-07-13T01:49:40.726Z,0.00
2018-07-13T01:50:40.968Z,0.00
2018-07-13T01:51:41.207Z,0.00
2018-07-13T01:52:41.447Z,0.00
2018-07-13T01:53:41.688Z,0.00
2018-07-13T01:54:41.932Z,0.00
2018-07-13T01:55:42.273Z,0.00
2018-07-13T01:56:42.416Z,0.00
2018-07-13T01:57:42.656Z,0.00
2018-07-13T01:58:42.900Z,0.00
2018-07-13T01:59:43.144Z,0.00
2018-07-13T02:00:43.385Z,0.00
2018-07-13T02:01:43.626Z,0.00
2018-07-13T02:02:43.868Z,0.00
2018-07-13T02:03:44.113Z,0.00
2018-07-13T02:04:44.350Z,0.00
2018-07-13T02:05:44.590Z,0.00
2018-07-13T02:06:44.832Z,0.00
2018-07-13T02:07:45.074Z,0.00
2018-07-13T02:08:45.315Z,0.00
2018-07-13T02:09:45.558Z,0.00
2018-07-13T02:10:45.800Z,0.00
2018-07-13T02:11:46.043Z,0.00
2018-07-13T02:12:46.284Z,0.00
2018-07-13T02:13:46.526Z,0.00
2018-07-13T02:14:46.767Z,0.00
2018-07-13T02:15:47.006Z,0.00
2018-07-13T02:16:47.247Z,0.00
2018-07-13T02:17:47.514Z,0.00
2018-07-13T02:18:47.731Z,0.00
2018-07-13T02:19:47.973Z,0.00
2018-07-13T02:20:48.214Z,0.00
2018-07-13T02:21:48.454Z,0.00
2018-07-13T02:22:48.695Z,0.00
2018-07-13T02:23:48.934Z,0.00
2018-07-13T02:24:49.179Z,0.00
2018-07-13T02:25:49.418Z,0.00
2018-07-13T02:26:49.663Z,0.00
2018-07-13T02:27:49.903Z,0.00
2018-07-13T02:28:50.144Z,0.00
2018-07-13T02:29:50.384Z,0.00
2018-07-13T02:30:50.628Z,0.00
2018-07-13T02:31:50.868Z,0.00
2018-07-13T02:32:51.112Z,0.00
2018-07-13T02:33:51.376Z,0.00
2018-07-13T02:34:51.596Z,0.00
2018-07-13T02:35:51.839Z,0.00
2018-07-13T02:36:52.080Z,0.00
2018-07-13T02:37:52.322Z,0.00
2018-07-13T02:38:52.609Z,0.00
2018-07-13T02:39:52.804Z,0.00
2018-07-13T02:40:53.045Z,0.00
2018-07-13T02:41:53.287Z,0.00
2018-07-13T02:42:53.543Z,0.00
2018-07-13T02:43:53.768Z,4.00
2018-07-13T02:44:54.006Z,4.00
2018-07-13T02:45:54.245Z,4.00
2018-07-13T02:46:54.487Z,0.00
2018-07-13T02:47:54.728Z,4.00
2018-07-13T02:48:54.969Z,4.00
2018-07-13T02:49:55.216Z,8.00
2018-07-13T02:50:55.452Z,4.00
2018-07-13T02:51:55.696Z,8.00
2018-07-13T02:52:55.933Z,4.00
2018-07-13T02:53:56.175Z,8.00
2018-07-13T02:54:56.423Z,8.00
2018-07-13T02:55:56.657Z,12.00
2018-07-13T02:56:56.899Z,16.00
2018-07-13T02:57:57.141Z,16.00
2018-07-13T02:58:57.380Z,20.00
2018-07-13T02:59:57.622Z,20.00
2018-07-13T03:00:57.862Z,24.00
2018-07-13T03:01:58.105Z,24.00
2018-07-13T03:02:58.345Z,28.00
2018-07-13T03:03:58.587Z,32.00
2018-07-13T03:04:58.828Z,36.00
2018-07-13T03:05:59.071Z,44.00
2018-07-13T03:06:59.311Z,52.00
2018-07-13T03:07:59.550Z,56.00
2018-07-13T03:08:59.802Z,64.00
2018-07-13T03:10:00.049Z,72.00
2018-07-13T03:11:00.275Z,80.00
2018-07-13T03:12:00.518Z,92.00
2018-07-13T03:13:00.761Z,100.00
2018-07-13T03:14:01.001Z,112.00
2018-07-13T03:15:01.240Z,124.00
2018-07-13T03:16:01.484Z,136.00
2018-07-13T03:17:01.726Z,152.00
2018-07-13T03:18:01.967Z,164.00
2018-07-13T03:19:02.207Z,188.00
2018-07-13T03:20:02.449Z,200.00
2018-07-13T03:21:02.691Z,224.00
2018-07-13T03:22:02.967Z,240.00
2018-07-13T03:23:03.171Z,260.00
2018-07-13T03:24:03.415Z,276.00
2018-07-13T03:25:03.657Z,300.00
2018-07-13T03:26:03.902Z,320.00
2018-07-13T03:27:04.140Z,340.00
2018-07-13T03:28:04.389Z,368.00
2018-07-13T03:29:04.625Z,392.00
2018-07-13T03:30:04.866Z,420.00
2018-07-13T03:31:05.105Z,448.00
2018-07-13T03:32:05.349Z,476.00
2018-07-13T03:33:05.589Z,504.00
2018-07-13T03:34:05.829Z,536.00
2018-07-13T03:35:06.070Z,568.00
2018-07-13T03:36:06.309Z,600.00
2018-07-13T03:37:06.549Z,628.00
2018-07-13T03:38:06.790Z,660.00
2018-07-13T03:39:07.033Z,696.00
2018-07-13T03:40:07.273Z,732.00
2018-07-13T03:41:07.517Z,772.00
2018-07-13T03:42:07.755Z,808.00
2018-07-13T03:43:07.994Z,844.00
2018-07-13T03:44:08.232Z,884.00
2018-07-13T03:45:08.476Z,920.00
2018-07-13T03:46:08.717Z,964.00
2018-07-13T03:47:08.958Z,1000.00
2018-07-13T03:48:09.199Z,1040.00
2018-07-13T03:49:09.440Z,1076.00
2018-07-13T03:50:09.682Z,1116.00
2018-07-13T03:51:09.921Z,1156.00
2018-07-13T03:52:10.163Z,1192.00
2018-07-13T03:53:10.408Z,1228.00
2018-07-13T03:54:10.663Z,1264.00
2018-07-13T03:55:10.890Z,1300.00
2018-07-13T03:56:11.130Z,1336.00
2018-07-13T03:57:11.371Z,1372.00
2018-07-13T03:58:11.612Z,1408.00
2018-07-13T03:59:11.856Z,1444.00
2018-07-13T04:00:12.095Z,1484.00
2018-07-13T04:01:12.336Z,1528.00
2018-07-13T04:02:12.582Z,1572.00
2018-07-13T04:03:12.823Z,1612.00
2018-07-13T04:04:13.063Z,1656.00
2018-07-13T04:05:13.304Z,1704.00
2018-07-13T04:06:13.547Z,1748.00
2018-07-13T04:07:13.791Z,1796.00
2018-07-13T04:08:14.032Z,1856.00
2018-07-13T04:09:14.274Z,1944.00
2018-07-13T04:10:14.515Z,2028.00
2018-07-13T04:11:14.759Z,2100.00
2018-07-13T04:12:15.000Z,2172.00
2018-07-13T04:13:15.242Z,2236.00
2018-07-13T04:14:15.485Z,2288.00
2018-07-13T04:15:15.726Z,2360.00
2018-07-13T04:16:15.968Z,2384.00
2018-07-13T04:17:16.210Z,2420.00
2018-07-13T04:18:16.455Z,2524.00
2018-07-13T04:19:16.702Z,2664.00
2018-07-13T04:20:16.935Z,2764.00
2018-07-13T04:21:17.177Z,2856.00
2018-07-13T04:22:17.418Z,2952.00
2018-07-13T04:23:17.662Z,3056.00
2018-07-13T04:24:17.905Z,3156.00
2018-07-13T04:25:18.143Z,3252.00
2018-07-13T04:26:18.388Z,3340.00
2018-07-13T04:27:18.631Z,3412.00
2018-07-13T04:28:18.873Z,3476.00
2018-07-13T04:29:19.121Z,3544.00
2018-07-13T04:30:19.363Z,3608.00
2018-07-13T04:31:19.608Z,3672.00
2018-07-13T04:32:19.850Z,3732.00
2018-07-13T04:33:20.093Z,3792.00
2018-07-13T04:34:20.417Z,3852.00
2018-07-13T04:35:20.577Z,3912.00
2018-07-13T04:36:20.819Z,3972.00
2018-07-13T04:37:21.060Z,4032.00
2018-07-13T04:38:21.303Z,4096.00
2018-07-13T04:39:21.547Z,4164.00
2018-07-13T04:40:21.785Z,4232.00
2018-07-13T04:41:22.027Z,4296.00
2018-07-13T04:42:22.271Z,4368.00
2018-07-13T04:43:22.514Z,4436.00
2018-07-13T04:44:22.753Z,4512.00
2018-07-13T04:45:22.997Z,4568.00
2018-07-13T04:46:23.237Z,4608.00
2018-07-13T04:47:23.478Z,4660.00
2018-07-13T04:48:23.720Z,4712.00
2018-07-13T04:49:23.963Z,4756.00
2018-07-13T04:50:24.206Z,4812.00
2018-07-13T04:51:24.448Z,4876.00
2018-07-13T04:52:24.690Z,4920.00
2018-07-13T04:53:24.930Z,4964.00
2018-07-13T04:54:25.174Z,4996.00
2018-07-13T04:55:25.414Z,5028.00
2018-07-13T04:56:25.657Z,5076.00
2018-07-13T04:57:25.900Z,5120.00
2018-07-13T04:58:26.145Z,5168.00
2018-07-13T04:59:26.388Z,5212.00
2018-07-13T05:00:26.632Z,5256.00
2018-07-13T05:01:26.874Z,5292.00
2018-07-13T05:02:27.118Z,5344.00
2018-07-13T05:03:27.362Z,5396.00
2018-07-13T05:04:27.605Z,5448.00
2018-07-13T05:05:27.848Z,5500.00
2018-07-13T05:06:28.090Z,5548.00
2018-07-13T05:07:28.336Z,5604.00
2018-07-13T05:08:28.574Z,5656.00
2018-07-13T05:09:28.817Z,5700.00
2018-07-13T05:10:29.059Z,5752.00
2018-07-13T05:11:29.303Z,5808.00
2018-07-13T05:12:29.547Z,5864.00
2018-07-13T05:13:29.790Z,5924.00
2018-07-13T05:14:30.033Z,5996.00
2018-07-13T05:15:30.277Z,6060.00
2018-07-13T05:16:30.518Z,6108.00
2018-07-13T05:17:30.764Z,6144.00
2018-07-13T05:18:31.009Z,6180.00
2018-07-13T05:19:31.250Z,6196.00
2018-07-13T05:20:31.493Z,6212.00
2018-07-13T05:21:31.737Z,6252.00
2018-07-13T05:22:31.978Z,6288.00
2018-07-13T05:23:32.221Z,6304.00
2018-07-13T05:24:32.465Z,6316.00
2018-07-13T05:25:32.708Z,6320.00
2018-07-13T05:26:32.950Z,6332.00
2018-07-13T05:27:33.192Z,6340.00
2018-07-13T05:28:33.437Z,6352.00
2018-07-13T05:29:33.682Z,6360.00
2018-07-13T05:30:33.926Z,6372.00
2018-07-13T05:31:34.171Z,6384.00
2018-07-13T05:32:34.414Z,6412.00
2018-07-13T05:33:34.658Z,6436.00
2018-07-13T05:34:34.900Z,6468.00
2018-07-13T05:35:35.143Z,6504.00
2018-07-13T05:36:35.384Z,6528.00
2018-07-13T05:37:35.631Z,6572.00
2018-07-13T05:38:35.873Z,6596.00
2018-07-13T05:39:36.113Z,6640.00
2018-07-13T05:40:36.357Z,6668.00
2018-07-13T05:41:36.601Z,6704.00
2018-07-13T05:42:36.844Z,6744.00
2018-07-13T05:43:37.088Z,6776.00
2018-07-13T05:44:37.332Z,6816.00
2018-07-13T05:45:37.576Z,6844.00
2018-07-13T05:46:37.818Z,6872.00
2018-07-13T05:47:38.061Z,6896.00
2018-07-13T05:48:38.307Z,6924.00
2018-07-13T05:49:38.561Z,6952.00
2018-07-13T05:50:38.800Z,6980.00
2018-07-13T05:51:39.034Z,7012.00
2018-07-13T05:52:39.278Z,7040.00
2018-07-13T05:53:39.521Z,7072.00
2018-07-13T05:54:39.767Z,7100.00
2018-07-13T05:55:40.010Z,7128.00
2018-07-13T05:56:40.256Z,7164.00
2018-07-13T05:57:40.498Z,7188.00
2018-07-13T05:58:40.744Z,7220.00
2018-07-13T05:59:40.994Z,7232.00
2018-07-13T06:00:41.230Z,7264.00
2018-07-13T06:01:41.474Z,7276.00
2018-07-13T06:02:41.730Z,7304.00
2018-07-13T06:03:41.963Z,7336.00
2018-07-13T06:04:42.208Z,7356.00
2018-07-13T06:05:42.453Z,7376.00
2018-07-13T06:06:42.698Z,7388.00
2018-07-13T06:07:42.944Z,7404.00
2018-07-13T06:08:43.189Z,7424.00
2018-07-13T06:09:43.440Z,7448.00
2018-07-13T06:10:43.677Z,7464.00
2018-07-13T06:11:43.922Z,7492.00
2018-07-13T06:12:44.166Z,7504.00
2018-07-13T06:13:44.410Z,7512.00
2018-07-13T06:14:44.660Z,7512.00
2018-07-13T06:15:44.900Z,7516.00
2018-07-13T06:16:45.142Z,7512.00
2018-07-13T06:17:45.391Z,7516.00
2018-07-13T06:18:45.630Z,7524.00
2018-07-13T06:19:45.875Z,7536.00
2018-07-13T06:20:46.118Z,7568.00
2018-07-13T06:21:46.364Z,7596.00
2018-07-13T06:22:46.607Z,7624.00
2018-07-13T06:23:46.852Z,7656.00
2018-07-13T06:24:47.096Z,7684.00
2018-07-13T06:25:47.342Z,7692.00
2018-07-13T06:26:47.588Z,7736.00
2018-07-13T06:27:47.834Z,7764.00
2018-07-13T06:28:48.080Z,7784.00
2018-07-13T06:29:48.327Z,7808.00
2018-07-13T06:30:48.573Z,7860.00
2018-07-13T06:31:48.818Z,7872.00
2018-07-13T06:32:49.063Z,7880.00
2018-07-13T06:33:49.309Z,7896.00
2018-07-13T06:34:49.556Z,7912.00
2018-07-13T06:35:49.800Z,7916.00
2018-07-13T06:36:50.045Z,7920.00
2018-07-13T06:37:50.290Z,7916.00
2018-07-13T06:38:50.535Z,7916.00
2018-07-13T06:39:50.788Z,7920.00
2018-07-13T06:40:51.027Z,7916.00
2018-07-13T06:41:51.272Z,7920.00
2018-07-13T06:42:51.517Z,7928.00
2018-07-13T06:43:51.762Z,7932.00
2018-07-13T06:44:52.053Z,7940.00
2018-07-13T06:45:52.257Z,7952.00
2018-07-13T06:46:52.502Z,7964.00
2018-07-13T06:47:52.748Z,7972.00
2018-07-13T06:48:52.994Z,7984.00
2018-07-13T06:49:53.240Z,7992.00
2018-07-13T06:50:53.491Z,8008.00
2018-07-13T06:51:53.734Z,8020.00
2018-07-13T06:52:53.978Z,8036.00
2018-07-13T06:53:54.224Z,8060.00
2018-07-13T06:54:54.513Z,8064.00
2018-07-13T06:55:54.717Z,8060.00
2018-07-13T06:56:55.005Z,8052.00
2018-07-13T06:57:55.211Z,8088.00
2018-07-13T06:58:55.457Z,8084.00
2018-07-13T06:59:55.704Z,8088.00
2018-07-13T07:00:55.951Z,8092.00
2018-07-13T07:01:56.196Z,8116.00
2018-07-13T07:02:56.445Z,8128.00
2018-07-13T07:03:56.689Z,8136.00
2018-07-13T07:04:56.935Z,8152.00
2018-07-13T07:05:57.181Z,8160.00
2018-07-13T07:06:57.427Z,8156.00
2018-07-13T07:07:57.673Z,8168.00
2018-07-13T07:08:57.920Z,8160.00
2018-07-13T07:09:58.168Z,8164.00
2018-07-13T07:10:58.413Z,8156.00
2018-07-13T07:11:58.662Z,8156.00
2018-07-13T07:12:58.908Z,8164.00
2018-07-13T07:13:59.154Z,8144.00
2018-07-13T07:14:59.400Z,8148.00
2018-07-13T07:15:59.645Z,8164.00
2018-07-13T07:16:59.893Z,8188.00
2018-07-13T07:18:00.136Z,8192.00
2018-07-13T07:19:00.386Z,8196.00
2018-07-13T07:20:00.628Z,8184.00
2018-07-13T07:21:00.873Z,8280.00
2018-07-13T07:22:01.119Z,9756.00
2018-07-13T07:23:01.365Z,11224.00
2018-07-13T07:24:01.612Z,11700.00
2018-07-13T07:25:01.858Z,11964.00
2018-07-13T07:26:02.110Z,12000.00
2018-07-13T07:27:02.355Z,11432.00
2018-07-13T07:28:02.600Z,11848.00
2018-07-13T07:29:02.848Z,12088.00
2018-07-13T07:30:03.096Z,11640.00
2018-07-13T07:31:03.342Z,11384.00
2018-07-13T07:32:03.589Z,11192.00
2018-07-13T07:33:03.837Z,11140.00
2018-07-13T07:34:04.085Z,11548.00
2018-07-13T07:35:04.334Z,11632.00
2018-07-13T07:36:04.581Z,11240.00
2018-07-13T07:37:04.829Z,10916.00
2018-07-13T07:38:05.076Z,11016.00
2018-07-13T07:39:05.324Z,11480.00
2018-07-13T07:40:05.574Z,11456.00
2018-07-13T07:41:05.830Z,10972.00
2018-07-13T07:42:06.074Z,10824.00
2018-07-13T07:43:06.323Z,10952.00
2018-07-13T07:44:06.579Z,11320.00
2018-07-13T07:45:06.827Z,11588.00
2018-07-13T07:46:07.075Z,11260.00
2018-07-13T07:47:07.328Z,10916.00
2018-07-13T07:48:07.577Z,10848.00
2018-07-13T07:49:07.922Z,10964.00
2018-07-13T07:50:08.092Z,11156.00
2018-07-13T07:51:08.326Z,11184.00
2018-07-13T07:52:08.577Z,11112.00
2018-07-13T07:53:08.830Z,11112.00
2018-07-13T07:54:09.079Z,11372.00
2018-07-13T07:55:09.330Z,11792.00
2018-07-13T07:56:09.581Z,11640.00
2018-07-13T07:57:09.832Z,11316.00
2018-07-13T07:58:10.084Z,11212.00
2018-07-13T07:59:10.336Z,11220.00
2018-07-13T08:00:10.588Z,11280.00
2018-07-13T08:01:10.840Z,11592.00
2018-07-13T08:02:11.091Z,12000.00
2018-07-13T08:03:11.344Z,11920.00
2018-07-13T08:04:11.621Z,11712.00
2018-07-13T08:05:11.853Z,11708.00
2018-07-13T08:06:12.133Z,11816.00
2018-07-13T08:07:12.819Z,11776.00
2018-07-13T08:08:12.608Z,11720.00
2018-07-13T08:09:12.862Z,12020.00
2018-07-13T08:10:13.114Z,12160.00
2018-07-13T08:11:13.366Z,12120.00
2018-07-13T08:12:13.620Z,12244.00
2018-07-13T08:13:13.874Z,13048.00
2018-07-13T08:14:14.370Z,13668.00
2018-07-13T08:15:14.380Z,13232.00
2018-07-13T08:16:14.634Z,13436.00
2018-07-13T08:17:14.886Z,13776.00
2018-07-13T08:18:15.137Z,13940.00
2018-07-13T08:19:15.392Z,14908.00
2018-07-13T08:20:15.646Z,15264.00
2018-07-13T08:21:15.899Z,14772.00
2018-07-13T08:22:16.153Z,14228.00
2018-07-13T08:23:16.407Z,14468.00
2018-07-13T08:24:16.660Z,14976.00
2018-07-13T08:25:16.915Z,14616.00
2018-07-13T08:26:17.170Z,13900.00
2018-07-13T08:27:17.425Z,13148.00
2018-07-13T08:28:17.679Z,13316.00
2018-07-13T08:29:17.933Z,13364.00
2018-07-13T08:30:18.187Z,13388.00
2018-07-13T08:31:18.442Z,13396.00
2018-07-13T08:32:18.696Z,13328.00
2018-07-13T08:33:18.951Z,13300.00
2018-07-13T08:34:19.206Z,13508.00
2018-07-13T08:35:19.458Z,14156.00
2018-07-13T08:36:19.716Z,16572.00
2018-07-13T08:37:19.971Z,19808.00
2018-07-13T08:38:20.227Z,22016.00
2018-07-13T08:39:20.481Z,23776.00
2018-07-13T08:40:20.736Z,24256.00
2018-07-13T08:41:20.990Z,24320.00
2018-07-13T08:42:21.244Z,25184.00
2018-07-13T08:43:21.499Z,26144.00
2018-07-13T08:44:21.756Z,27616.00
2018-07-13T08:45:22.011Z,28928.00
2018-07-13T08:46:22.268Z,29888.00
2018-07-13T08:47:22.522Z,29920.00
2018-07-13T08:48:22.776Z,30592.00
2018-07-13T08:49:23.032Z,30336.00
2018-07-13T08:50:23.344Z,31040.00
2018-07-13T08:51:23.546Z,32000.00
2018-07-13T08:52:23.798Z,32800.00
2018-07-13T08:53:24.052Z,33536.00
2018-07-13T08:54:24.307Z,33568.00
2018-07-13T08:55:24.563Z,34720.00
2018-07-13T08:56:24.819Z,36416.00
2018-07-13T08:57:25.073Z,36576.00
2018-07-13T08:58:25.328Z,37824.00
2018-07-13T08:59:25.583Z,39808.00
2018-07-13T09:00:25.837Z,39968.00
2018-07-13T09:01:26.093Z,38304.00
2018-07-13T09:02:26.348Z,37952.00
2018-07-13T09:03:26.604Z,38080.00
2018-07-13T09:04:26.911Z,40384.00
2018-07-13T09:05:27.119Z,42816.00
2018-07-13T09:06:27.381Z,42560.00
2018-07-13T09:07:27.644Z,41344.00
2018-07-13T09:08:27.880Z,40992.00
2018-07-13T09:09:28.137Z,42720.00
2018-07-13T09:10:28.391Z,45184.00
2018-07-13T09:11:28.646Z,46304.00
2018-07-13T09:12:28.903Z,45536.00
2018-07-13T09:13:29.157Z,45120.00
2018-07-13T09:14:29.413Z,45856.00
2018-07-13T09:15:29.668Z,46880.00
2018-07-13T09:16:29.960Z,49088.00
2018-07-13T09:17:30.180Z,49664.00
2018-07-13T09:18:30.436Z,48672.00
2018-07-13T09:19:30.692Z,46752.00
2018-07-13T09:20:30.947Z,46144.00
2018-07-13T09:21:31.203Z,45024.00
2018-07-13T09:22:31.459Z,45088.00
2018-07-13T09:23:31.716Z,46944.00
2018-07-13T09:24:31.971Z,48160.00
2018-07-13T09:25:32.230Z,50560.00
2018-07-13T09:26:32.487Z,52640.00
2018-07-13T09:27:32.740Z,53280.00
2018-07-13T09:28:32.997Z,53280.00
2018-07-13T09:29:33.253Z,53696.00
2018-07-13T09:30:33.508Z,55040.00
2018-07-13T09:31:33.764Z,54752.00
2018-07-13T09:32:34.021Z,51584.00
2018-07-13T09:33:34.276Z,51424.00
2018-07-13T09:34:34.532Z,53184.00
2018-07-13T09:35:34.789Z,53856.00
2018-07-13T09:36:35.046Z,53664.00
2018-07-13T09:37:35.300Z,53440.00
2018-07-13T09:38:35.555Z,53952.00
2018-07-13T09:39:35.813Z,52800.00
2018-07-13T09:40:36.069Z,52768.00
2018-07-13T09:41:36.325Z,52736.00
2018-07-13T09:42:36.579Z,55392.00
2018-07-13T09:43:36.843Z,56160.00
2018-07-13T09:44:37.093Z,56288.00
2018-07-13T09:45:37.350Z,57664.00
2018-07-13T09:46:37.663Z,60000.00
2018-07-13T09:47:37.868Z,58912.00
2018-07-13T09:48:38.126Z,58304.00
2018-07-13T09:49:38.381Z,58528.00
2018-07-13T09:50:38.652Z,60704.00
2018-07-13T09:51:38.895Z,61632.00
2018-07-13T09:52:39.151Z,63360.00
2018-07-13T09:53:39.480Z,65472.00
2018-07-13T09:54:39.664Z,64288.00
2018-07-13T09:55:39.925Z,62368.00
2018-07-13T09:56:40.182Z,64992.00
2018-07-13T09:57:40.441Z,64288.00
2018-07-13T09:58:40.701Z,61056.00
2018-07-13T09:59:40.958Z,61696.00
2018-07-13T10:00:41.317Z,62176.00
2018-07-13T10:01:41.480Z,60672.00
2018-07-13T10:02:41.739Z,61952.00
2018-07-13T10:03:41.999Z,65024.00
2018-07-13T10:04:42.271Z,66176.00
2018-07-13T10:05:42.516Z,66976.00
2018-07-13T10:06:42.776Z,67456.00
2018-07-13T10:07:43.038Z,70208.00
2018-07-13T10:08:43.298Z,70560.00
2018-07-13T10:09:43.561Z,0.00
2018-07-13T10:10:43.821Z,69536.00
2018-07-13T10:11:44.083Z,73152.00
2018-07-13T10:12:44.344Z,75616.00
2018-07-13T10:13:44.608Z,73664.00
2018-07-13T10:14:44.867Z,71808.00
2018-07-13T10:15:45.128Z,71680.00
2018-07-13T10:16:45.387Z,72224.00
2018-07-13T10:17:45.649Z,71584.00
2018-07-13T10:18:45.913Z,72864.00
2018-07-13T10:19:46.169Z,72288.00
2018-07-13T10:20:46.437Z,70560.00
2018-07-13T10:21:46.688Z,69184.00
2018-07-13T10:22:46.948Z,73216.00
2018-07-13T10:23:47.207Z,75232.00
2018-07-13T10:24:47.470Z,73600.00
2018-07-13T10:25:47.728Z,72768.00
2018-07-13T10:26:47.986Z,73664.00
2018-07-13T10:27:48.245Z,77312.00
2018-07-13T10:28:48.501Z,76576.00
2018-07-13T10:29:48.760Z,76064.00
2018-07-13T10:30:49.018Z,78848.00
2018-07-13T10:31:49.315Z,80672.00
2018-07-13T10:32:49.530Z,78976.00
2018-07-13T10:33:49.789Z,51680.00
2018-07-13T10:34:50.046Z,50944.00
2018-07-13T10:35:50.304Z,80224.00
2018-07-13T10:36:50.562Z,81504.00
2018-07-13T10:37:50.820Z,80160.00
2018-07-13T10:38:51.079Z,79648.00
2018-07-13T10:39:51.338Z,81312.00
2018-07-13T10:40:51.596Z,79392.00
2018-07-13T10:41:51.854Z,78112.00
2018-07-13T10:42:52.111Z,79680.00
2018-07-13T10:43:52.371Z,80576.00
2018-07-13T10:44:52.631Z,79712.00
2018-07-13T10:45:52.974Z,76096.00
2018-07-13T10:46:53.149Z,78656.00
2018-07-13T10:47:53.407Z,80544.00
2018-07-13T10:48:53.666Z,77184.00
2018-07-13T10:49:53.923Z,73920.00
2018-07-13T10:50:54.184Z,44928.00
2018-07-13T10:51:54.441Z,79424.00
2018-07-13T10:52:54.700Z,73344.00
2018-07-13T10:53:54.957Z,77664.00
2018-07-13T10:54:55.218Z,81344.00
2018-07-13T10:55:55.477Z,78976.00
2018-07-13T10:56:55.761Z,25280.00
2018-07-13T10:57:55.997Z,17716.00
2018-07-13T10:58:56.255Z,83424.00
2018-07-13T10:59:56.512Z,81344.00
2018-07-13T11:00:56.774Z,80704.00
2018-07-13T11:01:57.028Z,81696.00
2018-07-13T11:02:57.308Z,84064.00
2018-07-13T11:03:57.544Z,23712.00
2018-07-13T11:04:57.800Z,21056.00
2018-07-13T11:05:58.060Z,20416.00
2018-07-13T11:06:58.319Z,21024.00
2018-07-13T11:07:58.596Z,76064.00
2018-07-13T11:08:58.833Z,79200.00
2018-07-13T11:09:59.091Z,53920.00
2018-07-13T11:10:59.349Z,87840.00
2018-07-13T11:11:59.606Z,89856.00
2018-07-13T11:12:59.864Z,88928.00
2018-07-13T11:14:00.134Z,85728.00
2018-07-13T11:15:00.376Z,84512.00
2018-07-13T11:16:00.632Z,71968.00
2018-07-13T11:17:00.888Z,23776.00
2018-07-13T11:18:01.146Z,26880.00
2018-07-13T11:19:01.401Z,75936.00
2018-07-13T11:20:01.658Z,78752.00
2018-07-13T11:21:01.914Z,82784.00
2018-07-13T11:22:02.171Z,82336.00
2018-07-13T11:23:02.429Z,81760.00
2018-07-13T11:24:02.684Z,47360.00
2018-07-13T11:25:02.940Z,79104.00
2018-07-13T11:26:03.198Z,81504.00
2018-07-13T11:27:03.454Z,79904.00
2018-07-13T11:28:03.711Z,83904.00
2018-07-13T11:29:03.967Z,86560.00
2018-07-13T11:30:04.230Z,83264.00
2018-07-13T11:31:04.484Z,75520.00
2018-07-13T11:32:04.738Z,73632.00
2018-07-13T11:33:04.996Z,76512.00
2018-07-13T11:34:05.253Z,21984.00
2018-07-13T11:35:05.509Z,79488.00
2018-07-13T11:36:05.767Z,77952.00
2018-07-13T11:37:06.291Z,79104.00
2018-07-13T11:38:06.281Z,79136.00
2018-07-13T11:39:06.537Z,80000.00
2018-07-13T11:40:06.794Z,80640.00
2018-07-13T11:41:07.052Z,78784.00
2018-07-13T11:42:07.313Z,77984.00
2018-07-13T11:43:07.567Z,77504.00
2018-07-13T11:44:07.856Z,75360.00
2018-07-13T11:45:08.081Z,78880.00
2018-07-13T11:46:08.341Z,83456.00
2018-07-13T11:47:08.598Z,85152.00
2018-07-13T11:48:08.853Z,85504.00
2018-07-13T11:49:09.109Z,87456.00
2018-07-13T11:50:09.366Z,87296.00
2018-07-13T11:51:09.623Z,83616.00
2018-07-13T11:52:09.930Z,81344.00
2018-07-13T11:53:10.138Z,84064.00
2018-07-13T11:54:10.396Z,86976.00
2018-07-13T11:55:10.653Z,86240.00
2018-07-13T11:56:10.910Z,84000.00
2018-07-13T11:57:11.168Z,84128.00
2018-07-13T11:58:11.427Z,87744.00
2018-07-13T11:59:11.682Z,91360.00
2018-07-13T12:00:11.943Z,89888.00
2018-07-13T12:01:12.198Z,87008.00
2018-07-13T12:02:12.456Z,88352.00
2018-07-13T12:03:12.715Z,90944.00
2018-07-13T12:04:12.971Z,89504.00
2018-07-13T12:05:13.229Z,91296.00
2018-07-13T12:06:13.487Z,91072.00
2018-07-13T12:07:13.744Z,90016.00
2018-07-13T12:08:14.003Z,89600.00
2018-07-13T12:09:14.261Z,90336.00
2018-07-13T12:10:14.519Z,91904.00
2018-07-13T12:11:14.777Z,90880.00
2018-07-13T12:12:15.036Z,93152.00
2018-07-13T12:13:15.293Z,96800.00
2018-07-13T12:14:15.570Z,76160.00
2018-07-13T12:15:15.810Z,89728.00
2018-07-13T12:16:16.068Z,91360.00
2018-07-13T12:17:16.329Z,88928.00
2018-07-13T12:18:16.610Z,27328.00
2018-07-13T12:19:16.843Z,93664.00
2018-07-13T12:20:17.100Z,28896.00